createdAt,value
2023-04-20T00:03:38.983Z,55.65
2023-04-20T00:06:07.718Z,56.54
2023-04-20T00:08:35.880Z,56.41
2023-04-20T00:11:04.291Z,56.33
2023-04-20T00:13:32.953Z,55.67
2023-04-20T00:16:01.085Z,55.50
2023-04-20T00:18:29.731Z,55.17
2023-04-20T00:20:57.916Z,54.99
2023-04-20T00:23:25.993Z,54.79
2023-04-20T00:25:57.279Z,54.38
2023-04-20T00:28:25.361Z,54.17
2023-04-20T00:30:54.050Z,54.30
2023-04-20T00:33:22.836Z,54.37
2023-04-20T00:35:51.012Z,53.85
2023-04-20T00:38:19.117Z,53.69
2023-04-20T00:40:48.032Z,53.46
2023-04-20T00:43:16.278Z,53.35
2023-04-20T00:45:45.855Z,53.28
2023-04-20T00:48:14.516Z,53.00
2023-04-20T00:50:42.812Z,52.93
2023-04-20T00:53:12.972Z,52.47
2023-04-20T00:55:44.096Z,52.36
2023-04-20T00:58:12.545Z,52.30
2023-04-20T01:00:40.833Z,52.13
2023-04-20T01:03:09.708Z,52.17
2023-04-20T01:05:39.111Z,51.83
2023-04-20T01:08:07.449Z,51.85
2023-04-20T01:10:36.054Z,51.96
2023-04-20T01:13:04.578Z,51.92
2023-04-20T01:15:32.797Z,51.96
2023-04-20T01:18:01.410Z,51.99
2023-04-20T01:20:30.219Z,51.68
2023-04-20T01:22:58.440Z,51.75
2023-04-20T01:25:28.108Z,51.90
2023-04-20T01:27:56.395Z,51.92
2023-04-20T01:30:24.587Z,51.80
2023-04-20T01:32:52.893Z,51.75
2023-04-20T01:35:21.642Z,51.81
2023-04-20T01:37:49.824Z,51.82
2023-04-20T01:40:18.139Z,51.81
2023-04-20T01:42:46.333Z,51.86
2023-04-20T01:45:17.046Z,51.85
2023-04-20T01:47:45.374Z,51.78
2023-04-20T01:50:14.965Z,51.91
2023-04-20T01:52:46.585Z,52.05
2023-04-20T01:55:15.201Z,52.13
2023-04-20T01:57:43.474Z,52.09
2023-04-20T02:00:12.776Z,51.96
2023-04-20T02:02:41.746Z,51.92
2023-04-20T02:05:10.348Z,51.85
2023-04-20T02:07:38.546Z,51.77
2023-04-20T02:10:07.960Z,51.69
2023-04-20T02:12:36.251Z,51.85
2023-04-20T02:15:05.336Z,51.78
2023-04-20T02:17:34.504Z,51.63
2023-04-20T02:20:04.455Z,51.59
2023-04-20T02:22:32.936Z,51.58
2023-04-20T02:25:01.850Z,51.54
2023-04-20T02:27:31.345Z,51.36
2023-04-20T02:30:00.625Z,51.40
2023-04-20T02:32:31.917Z,51.24
2023-04-20T02:35:00.172Z,51.06
2023-04-20T02:37:28.453Z,50.74
2023-04-20T02:39:56.955Z,50.66
2023-04-20T02:42:25.077Z,50.65
2023-04-20T02:44:53.523Z,50.61
2023-04-20T02:47:21.957Z,50.54
2023-04-20T02:49:51.707Z,50.33
2023-04-20T02:52:20.104Z,49.88
2023-04-20T02:54:48.592Z,49.78
2023-04-20T02:57:16.885Z,49.98
2023-04-20T02:59:45.089Z,49.85
2023-04-20T03:02:13.623Z,49.96
2023-04-20T03:04:42.169Z,50.04
2023-04-20T03:07:11.162Z,49.69
2023-04-20T03:09:39.617Z,49.57
2023-04-20T03:12:07.868Z,49.54
2023-04-20T03:14:36.259Z,49.66
2023-04-20T03:17:04.708Z,49.53
2023-04-20T03:19:32.994Z,49.52
2023-04-20T03:22:01.198Z,49.55
2023-04-20T03:24:29.756Z,49.51
2023-04-20T03:26:57.996Z,49.46
2023-04-20T03:29:26.605Z,49.42
2023-04-20T03:31:55.299Z,49.27
2023-04-20T03:34:24.111Z,49.33
2023-04-20T03:36:52.421Z,49.33
2023-04-20T03:39:20.675Z,49.32
2023-04-20T03:41:48.886Z,49.24
2023-04-20T03:44:17.060Z,49.16
2023-04-20T03:46:47.390Z,49.06
2023-04-20T03:49:15.819Z,49.07
2023-04-20T03:51:44.849Z,48.95
2023-04-20T03:54:13.613Z,48.76
2023-04-20T03:56:42.250Z,48.72
2023-04-20T03:59:10.481Z,48.55
2023-04-20T04:01:39.256Z,48.63
2023-04-20T04:04:08.037Z,48.73
2023-04-20T04:06:36.521Z,48.63
2023-04-20T04:09:05.318Z,48.54
2023-04-20T04:11:33.410Z,48.47
2023-04-20T04:14:01.822Z,48.27
2023-04-20T04:16:30.043Z,48.13
2023-04-20T04:18:58.268Z,47.88
2023-04-20T04:21:26.877Z,47.98
2023-04-20T04:23:55.589Z,47.73
2023-04-20T04:26:26.105Z,47.63
2023-04-20T04:28:54.194Z,47.79
2023-04-20T04:31:22.533Z,47.72
2023-04-20T04:33:50.849Z,47.70
2023-04-20T04:36:19.019Z,47.78
2023-04-20T04:38:47.647Z,47.71
2023-04-20T04:41:15.888Z,47.88
2023-04-20T04:43:44.010Z,47.75
2023-04-20T04:46:12.572Z,47.62
2023-04-20T04:48:41.417Z,47.63
2023-04-20T04:51:09.904Z,47.42
2023-04-20T04:53:39.094Z,47.41
2023-04-20T04:56:07.596Z,47.27
2023-04-20T04:58:35.826Z,47.28
2023-04-20T05:01:04.069Z,47.14
2023-04-20T05:03:32.792Z,47.13
2023-04-20T05:06:01.240Z,46.66
2023-04-20T05:08:29.554Z,46.76
2023-04-20T05:10:58.194Z,46.56
2023-04-20T05:13:26.352Z,46.35
2023-04-20T05:15:54.718Z,46.10
2023-04-20T05:18:23.529Z,45.86
2023-04-20T05:20:51.827Z,45.88
2023-04-20T05:23:20.103Z,45.65
2023-04-20T05:25:48.739Z,45.11
2023-04-20T05:28:16.982Z,44.98
2023-04-20T05:30:45.265Z,45.05
2023-04-20T05:33:13.770Z,44.67
2023-04-20T05:35:42.048Z,44.97
2023-04-20T05:38:10.324Z,44.38
2023-04-20T05:40:39.498Z,44.37
2023-04-20T05:43:07.678Z,44.68
2023-04-20T05:45:35.983Z,44.75
2023-04-20T05:48:05.097Z,44.61
2023-04-20T05:50:33.296Z,44.48
2023-04-20T05:53:01.440Z,44.42
2023-04-20T05:55:30.022Z,44.30
2023-04-20T05:57:58.265Z,44.42
2023-04-20T06:00:28.916Z,44.44
2023-04-20T06:02:57.531Z,44.50
2023-04-20T06:05:26.131Z,44.45
2023-04-20T06:07:54.437Z,44.46
2023-04-20T06:10:22.594Z,44.51
2023-04-20T06:12:50.790Z,44.38
2023-04-20T06:15:19.180Z,44.42
2023-04-20T06:17:47.643Z,44.22
2023-04-20T06:20:15.847Z,44.25
2023-04-20T06:22:45.993Z,44.12
2023-04-20T06:25:14.745Z,43.70
2023-04-20T06:27:43.098Z,43.68
2023-04-20T06:30:11.865Z,43.41
2023-04-20T06:32:40.330Z,43.11
2023-04-20T06:35:09.223Z,42.59
2023-04-20T06:37:37.660Z,42.06
2023-04-20T06:40:06.989Z,41.84
2023-04-20T06:42:35.549Z,41.58
2023-04-20T06:45:06.275Z,41.16
2023-04-20T06:47:37.887Z,40.61
2023-04-20T06:50:08.083Z,40.12
2023-04-20T06:52:41.624Z,39.76
2023-04-20T06:55:10.166Z,39.31
2023-04-20T06:57:38.624Z,38.86
2023-04-20T07:00:09.077Z,38.48
2023-04-20T07:02:48.899Z,37.70
2023-04-20T07:05:18.922Z,37.58
2023-04-20T07:07:47.377Z,37.36
2023-04-20T07:10:17.523Z,36.66
2023-04-20T07:12:46.607Z,36.70
2023-04-20T07:15:15.967Z,36.41
2023-04-20T07:17:44.684Z,36.14
2023-04-20T07:20:13.584Z,35.78
2023-04-20T07:22:42.109Z,35.69
2023-04-20T07:25:10.513Z,35.66
2023-04-20T07:27:41.375Z,35.57
2023-04-20T07:30:11.014Z,35.57
2023-04-20T07:32:41.210Z,35.25
2023-04-20T07:35:11.108Z,35.08
2023-04-20T07:37:42.539Z,35.02
2023-04-20T07:40:11.591Z,34.92
2023-04-20T07:42:40.891Z,34.41
2023-04-20T07:45:11.442Z,34.39
2023-04-20T07:47:39.829Z,34.43
2023-04-20T07:50:11.030Z,35.33
2023-04-20T07:52:39.325Z,35.50
2023-04-20T07:55:08.342Z,35.81
2023-04-20T07:57:37.182Z,35.77
2023-04-20T08:00:06.387Z,35.57
2023-04-20T08:02:34.897Z,35.54
2023-04-20T08:05:03.639Z,35.91
2023-04-20T08:07:32.261Z,35.32
2023-04-20T08:10:01.453Z,34.71
2023-04-20T08:12:29.829Z,33.62
2023-04-20T08:14:58.315Z,32.43
2023-04-20T08:17:27.840Z,31.76
2023-04-20T08:19:56.161Z,31.21
2023-04-20T08:22:24.384Z,31.57
2023-04-20T08:24:53.004Z,30.82
2023-04-20T08:27:21.630Z,30.02
2023-04-20T08:29:50.052Z,29.25
2023-04-20T08:32:18.803Z,29.73
2023-04-20T08:34:47.012Z,29.65
2023-04-20T08:37:15.385Z,29.19
2023-04-20T08:39:44.153Z,29.35
2023-04-20T08:42:12.781Z,29.92
2023-04-20T08:44:41.250Z,29.85
2023-04-20T08:47:10.822Z,30.09
2023-04-20T08:49:42.306Z,29.40
2023-04-20T08:52:12.100Z,29.88
2023-04-20T08:54:53.252Z,30.80
2023-04-20T08:57:25.655Z,30.23
2023-04-20T08:59:54.741Z,30.54
2023-04-20T09:02:23.524Z,30.78
2023-04-20T09:05:06.383Z,31.37
2023-04-20T09:07:35.622Z,32.40
2023-04-20T09:10:04.755Z,33.75
2023-04-20T09:12:43.473Z,34.22
2023-04-20T09:15:28.193Z,34.90
2023-04-20T09:17:56.800Z,35.42
2023-04-20T09:20:35.311Z,36.47
2023-04-20T09:23:21.368Z,37.23
2023-04-20T09:25:53.353Z,36.91
2023-04-20T09:28:22.979Z,36.45
2023-04-20T09:30:51.221Z,36.15
2023-04-20T09:33:20.100Z,35.99
2023-04-20T09:35:48.903Z,35.92
2023-04-20T09:38:17.520Z,36.28
2023-04-20T09:40:46.076Z,35.94
2023-04-20T09:43:19.732Z,37.02
2023-04-20T09:45:48.972Z,36.90
2023-04-20T09:48:17.658Z,35.39
2023-04-20T09:50:49.829Z,34.81
2023-04-20T09:53:20.401Z,33.85
2023-04-20T09:55:51.272Z,34.39
2023-04-20T09:58:21.374Z,34.36
2023-04-20T10:00:51.088Z,34.95
2023-04-20T10:03:20.837Z,36.56
2023-04-20T10:05:50.628Z,36.30
2023-04-20T10:08:21.116Z,37.56
2023-04-20T10:10:50.698Z,37.70
2023-04-20T10:13:19.902Z,37.94
2023-04-20T10:15:49.427Z,38.60
2023-04-20T10:18:24.164Z,38.00
2023-04-20T10:21:06.644Z,37.66
2023-04-20T10:23:46.667Z,37.93
2023-04-20T10:26:15.743Z,40.35
2023-04-20T10:28:44.700Z,41.70
2023-04-20T10:31:13.967Z,42.88
2023-04-20T10:33:51.076Z,43.15
2023-04-20T10:36:29.670Z,43.72
2023-04-20T10:38:59.370Z,45.01
2023-04-20T10:41:27.762Z,46.34
2023-04-20T10:43:55.924Z,47.54
2023-04-20T10:46:25.437Z,47.96
2023-04-20T10:48:59.384Z,48.39
2023-04-20T10:51:28.468Z,49.58
2023-04-20T10:54:03.726Z,49.97
2023-04-20T10:56:45.917Z,50.45
2023-04-20T10:59:35.467Z,50.12
2023-04-20T11:02:09.085Z,49.90
2023-04-20T11:04:37.991Z,49.16
2023-04-20T11:07:08.284Z,49.98
2023-04-20T11:09:37.767Z,50.39
2023-04-20T11:12:12.239Z,51.81
2023-04-20T11:14:57.209Z,52.59
2023-04-20T11:17:37.276Z,53.77
2023-04-20T11:20:06.861Z,53.38
2023-04-20T11:22:35.599Z,51.89
2023-04-20T11:25:06.191Z,50.99
2023-04-20T11:27:35.782Z,51.04
2023-04-20T11:30:06.443Z,52.64
2023-04-20T11:32:36.110Z,52.83
2023-04-20T11:35:07.663Z,51.62
2023-04-20T11:37:50.599Z,51.60
2023-04-20T11:40:20.601Z,51.87
2023-04-20T11:42:49.272Z,51.10
2023-04-20T11:45:18.750Z,51.02
2023-04-20T11:47:47.388Z,51.46
2023-04-20T11:50:15.801Z,49.96
2023-04-20T11:52:45.644Z,48.91
2023-04-20T11:55:14.556Z,48.73
2023-04-20T11:57:43.360Z,48.40
2023-04-20T12:00:12.523Z,48.45
2023-04-20T12:02:41.039Z,49.54
2023-04-20T12:05:09.755Z,49.74
2023-04-20T12:07:38.757Z,49.53
2023-04-20T12:10:09.494Z,49.18
2023-04-20T12:12:37.896Z,48.22
2023-04-20T12:15:07.185Z,47.54
2023-04-20T12:17:35.796Z,47.56
2023-04-20T12:20:05.423Z,47.56
2023-04-20T12:22:35.473Z,47.40
2023-04-20T12:25:04.978Z,47.92
2023-04-20T12:27:33.669Z,48.35
2023-04-20T12:30:03.373Z,48.90
2023-04-20T12:32:32.363Z,48.76
2023-04-20T12:35:01.250Z,49.04
2023-04-20T12:37:30.250Z,49.38
2023-04-20T12:39:58.810Z,50.05
2023-04-20T12:42:27.107Z,50.66
2023-04-20T12:44:56.033Z,50.76
2023-04-20T12:47:25.095Z,51.34
2023-04-20T12:49:53.642Z,51.99
2023-04-20T12:52:21.851Z,52.36
2023-04-20T12:54:51.208Z,52.89
2023-04-20T12:57:19.402Z,53.05
2023-04-20T12:59:48.865Z,53.34
2023-04-20T13:02:18.282Z,53.76
2023-04-20T13:04:46.999Z,54.23
2023-04-20T13:07:15.386Z,54.71
2023-04-20T13:09:44.520Z,55.13
2023-04-20T13:12:13.757Z,54.83
2023-04-20T13:14:42.255Z,55.60
2023-04-20T13:17:10.560Z,55.85
2023-04-20T13:19:38.792Z,56.18
2023-04-20T13:22:08.279Z,55.76
2023-04-20T13:24:36.436Z,55.81
2023-04-20T13:27:05.026Z,54.64
2023-04-20T13:29:34.581Z,54.67
2023-04-20T13:32:03.314Z,55.16
2023-04-20T13:34:33.286Z,55.38
2023-04-20T13:37:02.303Z,55.09
2023-04-20T13:39:30.621Z,54.95
2023-04-20T13:41:58.903Z,55.18
2023-04-20T13:44:28.246Z,55.41
2023-04-20T13:46:56.755Z,55.28
2023-04-20T13:49:25.266Z,55.32
2023-04-20T13:51:54.642Z,55.56
2023-04-20T13:54:22.755Z,55.42
2023-04-20T13:56:52.216Z,55.51
2023-04-20T13:59:21.572Z,55.08
2023-04-20T14:01:50.216Z,54.35
2023-04-20T14:04:19.460Z,55.00
2023-04-20T14:06:48.687Z,54.97
2023-04-20T14:09:18.220Z,54.69
2023-04-20T14:11:48.123Z,55.10
2023-04-20T14:14:18.062Z,55.30
2023-04-20T14:16:49.288Z,55.39
2023-04-20T14:19:18.500Z,55.42
2023-04-20T14:21:47.433Z,55.45
2023-04-20T14:24:16.197Z,55.72
2023-04-20T14:26:44.782Z,55.76
2023-04-20T14:29:12.969Z,56.39
2023-04-20T14:31:41.495Z,56.21
2023-04-20T14:34:10.180Z,56.11
2023-04-20T14:36:38.290Z,56.34
2023-04-20T14:39:06.927Z,56.19
2023-04-20T14:41:36.145Z,56.30
2023-04-20T14:44:04.297Z,56.15
2023-04-20T14:46:32.812Z,55.75
2023-04-20T14:49:01.002Z,56.04
2023-04-20T14:51:29.919Z,56.77
2023-04-20T14:53:59.382Z,56.60
2023-04-20T14:56:28.144Z,56.28
2023-04-20T14:58:56.556Z,56.15
2023-04-20T15:01:24.843Z,56.36
2023-04-20T15:03:53.283Z,56.26
2023-04-20T15:06:21.696Z,56.44
2023-04-20T15:08:50.187Z,56.70
2023-04-20T15:11:18.214Z,56.69
2023-04-20T15:13:49.405Z,56.46
2023-04-20T15:16:18.694Z,56.74
2023-04-20T15:18:47.558Z,56.26
2023-04-20T15:21:16.594Z,55.73
2023-04-20T15:23:45.228Z,55.82
2023-04-20T15:26:13.911Z,55.73
2023-04-20T15:28:42.097Z,55.79
2023-04-20T15:31:11.423Z,55.70
2023-04-20T15:33:41.162Z,55.73
2023-04-20T15:36:10.334Z,55.88
2023-04-20T15:38:39.140Z,56.37
2023-04-20T15:41:07.635Z,56.75
2023-04-20T15:43:36.320Z,57.04
2023-04-20T15:46:04.727Z,57.13
2023-04-20T15:48:33.682Z,57.25
2023-04-20T15:51:04.411Z,57.41
2023-04-20T15:53:32.667Z,57.47
2023-04-20T15:56:01.001Z,57.67
2023-04-20T15:58:29.508Z,57.76
2023-04-20T16:00:57.756Z,57.89
2023-04-20T16:03:26.187Z,58.21
2023-04-20T16:05:54.736Z,58.79
2023-04-20T16:08:22.987Z,58.86
2023-04-20T16:10:51.169Z,59.06
2023-04-20T16:13:19.909Z,59.00
2023-04-20T16:15:48.279Z,59.08
2023-04-20T16:18:16.547Z,59.53
2023-04-20T16:20:45.178Z,59.85
2023-04-20T16:23:14.283Z,60.05
2023-04-20T16:25:42.720Z,60.17
2023-04-20T16:28:11.670Z,60.28
2023-04-20T16:30:39.934Z,60.41
2023-04-20T16:33:08.166Z,60.65
2023-04-20T16:35:36.651Z,60.69
2023-04-20T16:38:04.870Z,60.93
2023-04-20T16:40:33.042Z,61.17
2023-04-20T16:43:01.205Z,61.42
2023-04-20T16:45:29.694Z,61.35
2023-04-20T16:47:58.329Z,61.16
2023-04-20T16:50:27.688Z,61.09
2023-04-20T16:52:55.866Z,61.12
2023-04-20T16:55:23.909Z,61.01
2023-04-20T16:57:52.254Z,61.09
2023-04-20T17:00:20.582Z,61.17
2023-04-20T17:02:50.604Z,61.57
2023-04-20T17:05:18.714Z,61.80
2023-04-20T17:07:46.834Z,61.67
2023-04-20T17:10:15.346Z,61.76
2023-04-20T17:12:43.998Z,61.73
2023-04-20T17:15:12.478Z,61.57
2023-04-20T17:17:41.921Z,61.47
2023-04-20T17:20:10.542Z,61.32
2023-04-20T17:22:38.852Z,61.39
2023-04-20T17:25:09.201Z,61.33
2023-04-20T17:27:38.220Z,61.25
2023-04-20T17:30:08.704Z,61.29
2023-04-20T17:32:37.430Z,61.48
2023-04-20T17:35:06.114Z,61.70
2023-04-20T17:37:35.992Z,61.63
2023-04-20T17:40:05.554Z,61.94
2023-04-20T17:42:33.807Z,62.03
2023-04-20T17:45:03.191Z,62.32
2023-04-20T17:47:32.485Z,62.47
2023-04-20T17:50:00.872Z,62.59
2023-04-20T17:52:29.556Z,62.63
2023-04-20T17:54:59.329Z,62.83
2023-04-20T17:57:28.974Z,62.92
2023-04-20T17:59:57.201Z,63.04
2023-04-20T18:02:25.655Z,63.08
2023-04-20T18:04:54.787Z,63.51
2023-04-20T18:07:22.971Z,63.59
2023-04-20T18:09:51.188Z,63.66
2023-04-20T18:12:20.884Z,63.97
2023-04-20T18:14:49.203Z,63.93
2023-04-20T18:17:18.328Z,64.33
2023-04-20T18:19:46.700Z,64.39
2023-04-20T18:22:15.669Z,64.35
2023-04-20T18:24:43.999Z,64.47
2023-04-20T18:27:13.425Z,64.58
2023-04-20T18:29:42.066Z,64.63
2023-04-20T18:32:10.526Z,64.74
2023-04-20T18:34:39.406Z,64.80
2023-04-20T18:37:07.558Z,64.89
2023-04-20T18:39:36.087Z,65.01
2023-04-20T18:42:04.286Z,65.14
2023-04-20T18:44:33.403Z,65.22
2023-04-20T18:47:01.819Z,65.09
2023-04-20T18:49:30.276Z,65.18
2023-04-20T18:51:58.461Z,65.22
2023-04-20T18:54:26.814Z,65.51
2023-04-20T18:56:55.536Z,65.57
2023-04-20T18:59:23.742Z,65.61
2023-04-20T19:01:51.873Z,65.78
2023-04-20T19:04:21.392Z,66.08
2023-04-20T19:06:50.893Z,66.37
2023-04-20T19:09:19.241Z,66.39
2023-04-20T19:11:47.601Z,66.46
2023-04-20T19:14:16.551Z,66.57
2023-04-20T19:16:45.521Z,66.53
2023-04-20T19:19:14.365Z,66.56
2023-04-20T19:21:43.894Z,66.64
2023-04-20T19:24:11.987Z,66.85
2023-04-20T19:26:40.452Z,66.87
2023-04-20T19:29:08.726Z,66.94
2023-04-20T19:31:36.906Z,66.87
2023-04-20T19:34:08.414Z,66.91
2023-04-20T19:36:36.641Z,66.83
2023-04-20T19:39:05.890Z,66.82
2023-04-20T19:41:34.353Z,66.76
2023-04-20T19:44:02.568Z,66.77
2023-04-20T19:46:30.856Z,66.73
2023-04-20T19:49:00.865Z,66.65
2023-04-20T19:51:31.887Z,66.58
2023-04-20T19:54:01.508Z,66.52
2023-04-20T19:56:30.605Z,66.44
2023-04-20T19:58:59.521Z,66.39
2023-04-20T20:01:28.302Z,66.31
2023-04-20T20:03:57.422Z,66.30
2023-04-20T20:06:25.773Z,66.34
2023-04-20T20:08:54.518Z,66.39
2023-04-20T20:11:22.639Z,66.35
2023-04-20T20:13:51.775Z,66.31
2023-04-20T20:16:21.761Z,66.36
2023-04-20T20:18:50.361Z,66.25
2023-04-20T20:21:19.062Z,66.26
2023-04-20T20:23:47.211Z,66.20
2023-04-20T20:26:15.359Z,66.24
2023-04-20T20:28:43.495Z,66.29
2023-04-20T20:31:12.561Z,66.34
2023-04-20T20:33:40.886Z,66.25
2023-04-20T20:36:09.496Z,66.25
2023-04-20T20:38:37.972Z,66.21
2023-04-20T20:41:06.259Z,66.35
2023-04-20T20:43:34.286Z,66.44
2023-04-20T20:46:02.552Z,66.44
2023-04-20T20:48:30.696Z,66.33
2023-04-20T20:51:00.417Z,66.31
2023-04-20T20:53:30.024Z,66.23
2023-04-20T20:55:59.004Z,66.29
2023-04-20T20:58:27.882Z,66.32
2023-04-20T21:00:56.981Z,66.36
2023-04-20T21:03:25.483Z,66.46
2023-04-20T21:05:54.223Z,66.46
2023-04-20T21:08:22.795Z,66.56
2023-04-20T21:10:51.006Z,66.66
2023-04-20T21:13:19.159Z,66.83
2023-04-20T21:15:48.773Z,66.81
2023-04-20T21:18:18.597Z,66.74
2023-04-20T21:20:46.982Z,66.70
2023-04-20T21:23:15.227Z,66.68
2023-04-20T21:25:43.839Z,66.65
2023-04-20T21:28:12.923Z,66.68
2023-04-20T21:30:41.454Z,66.75
2023-04-20T21:33:09.584Z,66.89
2023-04-20T21:35:38.427Z,66.98
2023-04-20T21:38:06.716Z,67.17
2023-04-20T21:40:35.432Z,67.41
2023-04-20T21:43:03.456Z,67.63
2023-04-20T21:45:32.393Z,67.75
2023-04-20T21:48:00.607Z,67.95
2023-04-20T21:50:28.843Z,68.10
2023-04-20T21:52:57.170Z,68.28
2023-04-20T21:55:25.539Z,68.40
2023-04-20T21:57:54.564Z,68.41
2023-04-20T22:00:22.828Z,68.43
2023-04-20T22:02:52.866Z,68.49
2023-04-20T22:05:21.315Z,68.45
2023-04-20T22:07:50.359Z,68.45
2023-04-20T22:10:18.673Z,68.43
2023-04-20T22:12:47.351Z,68.37
2023-04-20T22:15:16.099Z,68.36
2023-04-20T22:17:44.726Z,68.32
2023-04-20T22:20:13.792Z,68.29
2023-04-20T22:22:42.061Z,68.24
2023-04-20T22:25:11.024Z,68.22
2023-04-20T22:27:39.174Z,68.18
2023-04-20T22:30:09.020Z,68.17
2023-04-20T22:32:38.200Z,68.12
2023-04-20T22:35:06.710Z,68.05
2023-04-20T22:37:35.257Z,67.99
2023-04-20T22:40:04.461Z,67.91
2023-04-20T22:42:32.569Z,67.89
2023-04-20T22:45:00.821Z,67.91
2023-04-20T22:47:29.023Z,67.90
2023-04-20T22:49:57.332Z,67.89
2023-04-20T22:52:25.535Z,67.90
2023-04-20T22:54:54.867Z,67.83
2023-04-20T22:57:24.242Z,67.68
2023-04-20T22:59:52.510Z,67.67
2023-04-20T23:02:20.809Z,67.62
2023-04-20T23:04:50.369Z,67.56
2023-04-20T23:07:19.203Z,67.52
2023-04-20T23:09:47.336Z,67.46
2023-04-20T23:12:16.028Z,67.36
2023-04-20T23:14:44.341Z,67.32
2023-04-20T23:17:12.884Z,67.18
2023-04-20T23:19:41.562Z,67.11
2023-04-20T23:22:10.443Z,67.02
2023-04-20T23:24:39.052Z,66.96
2023-04-20T23:27:08.158Z,66.80
2023-04-20T23:29:37.302Z,66.65
2023-04-20T23:32:05.703Z,66.35
2023-04-20T23:34:34.277Z,66.11
2023-04-20T23:37:02.889Z,65.95
2023-04-20T23:39:31.076Z,65.61
2023-04-20T23:41:59.917Z,65.29
2023-04-20T23:44:29.338Z,65.29
2023-04-20T23:46:57.726Z,65.16
2023-04-20T23:49:26.134Z,65.00
2023-04-20T23:51:54.295Z,64.87
2023-04-20T23:54:22.503Z,64.67
2023-04-20T23:56:50.857Z,64.48
2023-04-20T23:59:21.151Z,64.39
